Time,TemperatureF,DewpointF,PressureIn,WindDirection,WindDirectionDegrees,WindSpeedMPH,WindSpeedGustMPH,Humidity,HourlyPrecipIn,Conditions,Clouds,dailyrainin,SoftwareType,DateUTC
2013-01-19 00:11:00,36.2,34.0,30.15,NW,304,1.0,4.0,93,0.00,,,0.00,weatherlink.com 1.10,2013-01-19 08:11:00,
2013-01-19 00:26:00,35.9,34.0,30.15,NW,304,0.0,1.0,93,0.00,,,0.00,weatherlink.com 1.10,2013-01-19 08:26:00,
2013-01-19 00:41:00,35.9,34.0,30.15,NW,304,0.0,1.0,94,0.00,,,0.00,weatherlink.com 1.10,2013-01-19 08:41:00,
2013-01-19 00:56:00,35.5,34.0,30.15,NW,304,0.0,0.0,94,0.00,,,0.00,weatherlink.com 1.10,2013-01-19 08:56:00,
2013-01-19 01:12:00,35.6,34.0,30.16,NW,304,0.0,0.0,94,0.00,,,0.00,weatherlink.com 1.10,2013-01-19 09:12:00,
2013-01-19 01:27:00,35.6,34.0,30.16,NW,304,0.0,0.0,94,0.00,,,0.00,weatherlink.com 1.10,2013-01-19 09:27:00,
2013-01-19 01:42:00,35.1,34.0,30.16,NW,304,0.0,2.0,94,0.00,,,0.00,weatherlink.com 1.10,2013-01-19 09:42:00,
2013-01-19 01:57:00,35.2,34.0,30.16,NNW,333,0.0,3.0,95,0.00,,,0.00,weatherlink.com 1.10,2013-01-19 09:57:00,
2013-01-19 02:12:00,35.8,34.0,30.16,NNW,333,0.0,0.0,94,0.00,,,0.00,weatherlink.com 1.10,2013-01-19 10:12:00,
2013-01-19 02:27:00,35.3,34.0,30.17,NNW,333,0.0,0.0,94,0.00,,,0.00,weatherlink.com 1.10,2013-01-19 10:27:00,
2013-01-19 02:42:00,36.0,35.0,30.17,NNW,333,0.0,1.0,94,0.00,,,0.00,weatherlink.com 1.10,2013-01-19 10:42:00,
2013-01-19 02:57:00,34.5,32.0,30.17,NNW,333,0.0,1.0,91,0.00,,,0.00,weatherlink.com 1.10,2013-01-19 10:57:00,
2013-01-19 03:12:00,34.1,33.0,30.18,NNW,333,0.0,0.0,94,0.00,,,0.00,weatherlink.com 1.10,2013-01-19 11:12:00,
2013-01-19 04:57:00,33.6,32.0,30.17,NW,325,2.0,2.0,95,0.00,,,0.00,weatherlink.com 1.10,2013-01-19 12:57:00,
2013-01-19 05:12:00,31.6,30.0,30.18,NW,325,0.0,2.0,93,0.00,,,0.00,weatherlink.com 1.10,2013-01-19 13:12:00,
2013-01-19 05:27:00,31.3,30.0,30.18,NW,325,0.0,1.0,94,0.00,,,0.00,weatherlink.com 1.10,2013-01-19 13:27:00,
2013-01-19 05:42:00,32.1,31.0,30.18,NW,325,0.0,1.0,95,0.00,,,0.00,weatherlink.com 1.10,2013-01-19 13:42:00,
2013-01-19 05:57:00,32.7,32.0,30.18,NW,325,1.0,2.0,95,0.00,,,0.00,weatherlink.com 1.10,2013-01-19 13:57:00,
2013-01-19 06:12:00,32.7,32.0,30.19,NW,322,0.0,0.0,95,0.00,,,0.00,weatherlink.com 1.10,2013-01-19 14:12:00,
2013-01-19 06:27:00,32.1,31.0,30.19,NW,322,0.0,0.0,95,0.00,,,0.00,weatherlink.com 1.10,2013-01-19 14:27:00,
2013-01-19 06:43:00,31.6,30.0,30.19,NW,322,0.0,1.0,95,0.00,,,0.00,weatherlink.com 1.10,2013-01-19 14:43:00,
2013-01-19 06:57:00,30.8,30.0,30.20,NW,313,3.0,3.0,95,0.00,,,0.00,weatherlink.com 1.10,2013-01-19 14:57:00,
2013-01-19 07:12:00,29.7,29.0,30.20,NW,313,0.0,0.0,95,0.00,,,0.00,weatherlink.com 1.10,2013-01-19 15:12:00,
2013-01-19 07:27:00,30.0,29.0,30.20,NW,313,0.0,0.0,95,0.00,,,0.00,weatherlink.com 1.10,2013-01-19 15:27:00,
2013-01-19 07:42:00,30.0,29.0,30.20,NW,313,0.0,1.0,95,0.00,,,0.00,weatherlink.com 1.10,2013-01-19 15:42:00,
2013-01-19 07:58:00,30.5,29.0,30.20,NW,313,0.0,1.0,95,0.00,,,0.00,weatherlink.com 1.10,2013-01-19 15:58:00,
2013-01-19 08:13:00,31.5,31.0,30.21,NW,313,0.0,2.0,96,0.00,,,0.00,weatherlink.com 1.10,2013-01-19 16:13:00,
2013-01-19 08:28:00,31.7,31.0,30.21,NW,313,0.0,0.0,95,0.00,,,0.00,weatherlink.com 1.10,2013-01-19 16:28:00,
2013-01-19 08:43:00,31.9,31.0,30.22,NW,313,0.0,0.0,96,0.00,,,0.00,weatherlink.com 1.10,2013-01-19 16:43:00,
2013-01-19 08:58:00,33.5,33.0,30.22,NW,321,2.0,3.0,96,0.00,,,0.00,weatherlink.com 1.10,2013-01-19 16:58:00,
2013-01-19 09:13:00,36.1,35.0,30.23,NNE,17,0.0,2.0,94,0.00,,,0.00,weatherlink.com 1.10,2013-01-19 17:13:00,
2013-01-19 09:28:00,38.0,35.0,30.23,ENE,57,0.0,3.0,90,0.00,,,0.00,weatherlink.com 1.10,2013-01-19 17:28:00,
2013-01-19 09:43:00,40.4,36.0,30.23,NE,36,0.0,3.0,84,0.00,,,0.00,weatherlink.com 1.10,2013-01-19 17:43:00,
2013-01-19 09:58:00,43.1,37.0,30.23,East,84,0.0,2.0,80,0.00,,,0.00,weatherlink.com 1.10,2013-01-19 17:58:00,
2013-01-19 10:13:00,45.7,37.0,30.23,East,86,0.0,3.0,72,0.00,,,0.00,weatherlink.com 1.10,2013-01-19 18:13:00,
2013-01-19 10:28:00,47.7,38.0,30.23,East,88,0.0,4.0,69,0.00,,,0.00,weatherlink.com 1.10,2013-01-19 18:28:00,
2013-01-19 10:43:00,49.9,39.0,30.22,SE,136,0.0,2.0,67,0.00,,,0.00,weatherlink.com 1.10,2013-01-19 18:43:00,
2013-01-19 11:28:00,54.1,39.0,30.20,ENE,63,0.0,2.0,58,0.00,,,0.00,weatherlink.com 1.10,2013-01-19 19:28:00,
2013-01-19 11:43:00,55.9,40.0,30.19,ESE,113,0.0,2.0,55,0.00,,,0.00,weatherlink.com 1.10,2013-01-19 19:43:00,
2013-01-19 12:28:00,58.9,40.0,30.17,NE,53,0.0,2.0,50,0.00,,,0.00,weatherlink.com 1.10,2013-01-19 20:28:00,
2013-01-19 12:43:00,58.6,40.0,30.16,NNE,21,2.0,4.0,50,0.00,,,0.00,weatherlink.com 1.10,2013-01-19 20:43:00,
2013-01-19 12:58:00,61.2,40.0,30.16,East,90,0.0,3.0,45,0.00,,,0.00,weatherlink.com 1.10,2013-01-19 20:58:00,
2013-01-19 13:14:00,62.7,40.0,30.16,East,94,0.0,3.0,44,0.00,,,0.00,weatherlink.com 1.10,2013-01-19 21:14:00,
2013-01-19 13:29:00,64.0,41.0,30.14,ESE,123,0.0,1.0,44,0.00,,,0.00,weatherlink.com 1.10,2013-01-19 21:29:00,
2013-01-19 13:44:00,65.5,40.0,30.14,East,99,1.0,3.0,40,0.00,,,0.00,weatherlink.com 1.10,2013-01-19 21:44:00,
2013-01-19 13:59:00,66.1,42.0,30.14,SSE,166,0.0,2.0,41,0.00,,,0.00,weatherlink.com 1.10,2013-01-19 21:59:00,
2013-01-19 14:14:00,63.0,42.0,30.14,SW,230,0.0,4.0,47,0.00,,,0.00,weatherlink.com 1.10,2013-01-19 22:14:00,
2013-01-19 14:29:00,62.5,42.0,30.14,SSW,205,0.0,5.0,47,0.00,,,0.00,weatherlink.com 1.10,2013-01-19 22:29:00,
2013-01-19 14:59:00,63.4,43.0,30.13,SSW,204,0.0,2.0,48,0.00,,,0.00,weatherlink.com 1.10,2013-01-19 22:59:00,
2013-01-19 15:14:00,63.8,44.0,30.13,SSW,205,0.0,1.0,48,0.00,,,0.00,weatherlink.com 1.10,2013-01-19 23:14:00,
2013-01-19 15:29:00,63.5,43.0,30.13,South,173,0.0,2.0,48,0.00,,,0.00,weatherlink.com 1.10,2013-01-19 23:29:00,
2013-01-19 15:44:00,63.2,44.0,30.13,SSW,196,2.0,2.0,50,0.00,,,0.00,weatherlink.com 1.10,2013-01-19 23:44:00,
2013-01-19 15:59:00,62.8,43.0,30.13,SSW,194,0.0,2.0,49,0.00,,,0.00,weatherlink.com 1.10,2013-01-19 23:59:00,
2013-01-19 16:14:00,62.4,43.0,30.13,SSW,194,0.0,1.0,50,0.00,,,0.00,weatherlink.com 1.10,2013-01-20 00:14:00,
2013-01-19 16:29:00,61.3,43.0,30.13,SSW,194,0.0,1.0,52,0.00,,,0.00,weatherlink.com 1.10,2013-01-20 00:29:00,
2013-01-19 16:59:00,58.1,41.0,30.13,SW,217,0.0,2.0,53,0.00,,,0.00,weatherlink.com 1.10,2013-01-20 00:59:00,
2013-01-19 17:14:00,57.2,41.0,30.13,SW,217,0.0,1.0,55,0.00,,,0.00,weatherlink.com 1.10,2013-01-20 01:14:00,
2013-01-19 17:29:00,55.6,40.0,30.13,SW,217,0.0,0.0,57,0.00,,,0.00,weatherlink.com 1.10,2013-01-20 01:29:00,
2013-01-19 18:14:00,53.1,40.0,30.14,SW,217,0.0,0.0,62,0.00,,,0.00,weatherlink.com 1.10,2013-01-20 02:14:00,
2013-01-19 18:29:00,51.0,42.0,30.14,SW,217,0.0,1.0,70,0.00,,,0.00,weatherlink.com 1.10,2013-01-20 02:29:00,
2013-01-19 18:44:00,48.8,41.0,30.14,SW,217,0.0,0.0,75,0.00,,,0.00,weatherlink.com 1.10,2013-01-20 02:44:00,
2013-01-19 18:59:00,46.9,41.0,30.14,SW,217,0.0,0.0,79,0.00,,,0.00,weatherlink.com 1.10,2013-01-20 02:59:00,
2013-01-19 19:14:00,45.9,40.0,30.15,SW,217,0.0,0.0,81,0.00,,,0.00,weatherlink.com 1.10,2013-01-20 03:14:00,
2013-01-19 19:29:00,45.8,41.0,30.15,SW,217,0.0,0.0,82,0.00,,,0.00,weatherlink.com 1.10,2013-01-20 03:29:00,
2013-01-19 19:44:00,45.1,40.0,30.15,SW,217,0.0,0.0,83,0.00,,,0.00,weatherlink.com 1.10,2013-01-20 03:44:00,
2013-01-19 19:59:00,43.7,39.0,30.16,SW,217,0.0,1.0,84,0.00,,,0.00,weatherlink.com 1.10,2013-01-20 03:59:00,
2013-01-19 20:14:00,42.4,39.0,30.16,SW,217,0.0,0.0,87,0.00,,,0.00,weatherlink.com 1.10,2013-01-20 04:14:00,
2013-01-19 20:29:00,42.0,39.0,30.16,SW,217,0.0,0.0,89,0.00,,,0.00,weatherlink.com 1.10,2013-01-20 04:29:00,
2013-01-19 20:44:00,41.8,39.0,30.17,SW,217,0.0,0.0,89,0.00,,,0.00,weatherlink.com 1.10,2013-01-20 04:44:00,
2013-01-19 20:59:00,41.4,39.0,30.17,SW,217,0.0,0.0,90,0.00,,,0.00,weatherlink.com 1.10,2013-01-20 04:59:00,
2013-01-19 21:14:00,40.1,37.0,30.18,SW,217,0.0,2.0,89,0.00,,,0.00,weatherlink.com 1.10,2013-01-20 05:14:00,
2013-01-19 21:29:00,39.5,37.0,30.18,SW,217,0.0,0.0,91,0.00,,,0.00,weatherlink.com 1.10,2013-01-20 05:29:00,
2013-01-19 21:44:00,39.7,38.0,30.19,SW,217,0.0,0.0,92,0.00,,,0.00,weatherlink.com 1.10,2013-01-20 05:44:00,
2013-01-19 21:59:00,40.3,38.0,30.19,SW,217,0.0,0.0,92,0.00,,,0.00,weatherlink.com 1.10,2013-01-20 05:59:00,
2013-01-19 22:14:00,40.3,38.0,30.20,SW,217,0.0,0.0,91,0.00,,,0.00,weatherlink.com 1.10,2013-01-20 06:14:00,
2013-01-19 22:29:00,39.9,38.0,30.20,SW,217,0.0,0.0,92,0.00,,,0.00,weatherlink.com 1.10,2013-01-20 06:29:00,
2013-01-19 22:44:00,38.3,36.0,30.20,SW,217,0.0,0.0,90,0.00,,,0.00,weatherlink.com 1.10,2013-01-20 06:44:00,
2013-01-19 22:59:00,37.7,35.0,30.20,SW,217,0.0,1.0,91,0.00,,,0.00,weatherlink.com 1.10,2013-01-20 06:59:00,
2013-01-19 23:14:00,37.1,35.0,30.20,SW,217,0.0,0.0,93,0.00,,,0.00,weatherlink.com 1.10,2013-01-20 07:14:00,
2013-01-19 23:29:00,37.0,35.0,30.20,SW,217,0.0,2.0,93,0.00,,,0.00,weatherlink.com 1.10,2013-01-20 07:29:00,
2013-01-19 23:44:00,36.9,35.0,30.20,SW,217,0.0,0.0,94,0.00,,,0.00,weatherlink.com 1.10,2013-01-20 07:44:00,
2013-01-19 23:59:00,36.9,35.0,30.20,SW,217,0.0,0.0,94,0.00,,,0.00,weatherlink.com 1.10,2013-01-20 07:59:00,